Time;durP1;ratioP1;P1;durP2;ratioP2;P2;SDS_P1;SDS_P2;PMS_P1;PMS_P2;Temp;Humidity;BMP_temperature;BMP_pressure;BME280_temperature;BME280_humidity;BME280_pressure;Samples;Min_cycle;Max_cycle;Signal;HPM_P1;HPM_P2
2021/03/14 00:00:30;;;;;;;7.65;1.85;;;11.00;99.90;;;;;;5007070;28;20397;-65
2021/03/14 00:03:36;;;;;;;11.05;2.20;;;11.10;99.90;;;;;;5009826;28;20576;-66
2021/03/14 00:06:41;;;;;;;8.50;2.15;;;11.00;99.90;;;;;;5011723;28;20053;-67
2021/03/14 00:09:45;;;;;;;10.10;2.05;;;11.10;99.90;;;;;;5011741;28;20022;-67
2021/03/14 00:12:49;;;;;;;9.57;3.42;;;11.10;99.90;;;;;;4998458;28;20041;-67
2021/03/14 00:15:53;;;;;;;8.40;1.73;;;11.10;99.90;;;;;;5010523;28;20050;-66
2021/03/14 00:18:58;;;;;;;9.15;2.10;;;11.00;99.90;;;;;;5010524;28;20041;-67
2021/03/14 00:22:02;;;;;;;16.23;2.33;;;11.00;99.90;;;;;;5010529;28;20038;-66
2021/03/14 00:25:08;;;;;;;7.85;1.77;;;11.10;99.90;;;;;;4999710;28;20049;-66
2021/03/14 00:28:16;;;;;;;11.68;2.00;;;11.10;99.90;;;;;;5012067;28;20041;-66
2021/03/14 00:31:22;;;;;;;11.65;1.80;;;11.20;99.90;;;;;;5012048;28;20049;-67
2021/03/14 00:34:27;;;;;;;9.95;2.05;;;11.30;99.90;;;;;;5012451;28;20053;-66
2021/03/14 00:37:31;;;;;;;9.43;1.80;;;11.30;99.90;;;;;;5012059;28;20049;-66
2021/03/14 00:40:35;;;;;;;12.57;1.80;;;11.20;99.90;;;;;;5012001;28;20053;-67
2021/03/14 00:43:39;;;;;;;8.38;1.92;;;11.10;99.90;;;;;;5012191;28;20045;-67
2021/03/14 00:46:44;;;;;;;11.30;2.13;;;11.10;99.90;;;;;;4986130;28;20038;-67
2021/03/14 00:49:47;;;;;;;12.48;1.73;;;11.10;99.90;;;;;;5010819;28;20216;-67
2021/03/14 00:52:52;;;;;;;7.88;1.75;;;11.20;99.90;;;;;;5012302;28;20092;-66
2021/03/14 00:55:58;;;;;;;8.65;1.90;;;11.30;99.90;;;;;;5000970;28;20034;-67
2021/03/14 00:59:02;;;;;;;10.50;2.88;;;11.30;99.90;;;;;;5011845;28;20410;-67
2021/03/14 01:02:07;;;;;;;10.15;2.20;;;11.30;99.90;;;;;;5011698;28;20045;-66
2021/03/14 01:05:12;;;;;;;14.18;2.28;;;11.40;99.90;;;;;;5011765;28;20037;-67
2021/03/14 01:08:18;;;;;;;7.95;2.10;;;11.20;99.90;;;;;;5011218;28;20041;-67
2021/03/14 01:11:24;;;;;;;9.57;1.92;;;11.20;99.90;;;;;;5021485;28;20060;-66
2021/03/14 01:14:47;;;;;;;7.80;1.90;;;11.30;99.90;;;;;;5002560;28;20049;-66
2021/03/14 01:18:06;;;;;;;9.20;1.75;;;11.20;99.90;;;;;;5010775;28;20061;-67
2021/03/14 01:21:11;;;;;;;9.43;1.90;;;11.20;99.90;;;;;;5010948;28;20038;-65
2021/03/14 01:24:16;;;;;;;8.70;2.00;;;11.20;99.90;;;;;;5011506;28;20033;-67
2021/03/14 01:27:20;;;;;;;9.60;2.05;;;11.20;99.90;;;;;;5010811;28;20497;-67
2021/03/14 01:30:24;;;;;;;9.07;2.50;;;11.20;99.90;;;;;;5011225;28;20069;-67
2021/03/14 01:33:28;;;;;;;11.25;2.28;;;11.20;99.90;;;;;;5011251;28;20045;-67
2021/03/14 01:36:32;;;;;;;7.07;2.45;;;11.20;99.90;;;;;;5011180;28;20049;-66
2021/03/14 01:39:38;;;;;;;6.47;1.80;;;11.20;99.90;;;;;;5011469;28;20057;-66
2021/03/14 01:42:44;;;;;;;13.60;2.28;;;11.20;99.90;;;;;;5011379;28;20053;-65
2021/03/14 01:45:48;;;;;;;9.70;2.55;;;11.10;99.90;;;;;;5001304;28;20041;-66
2021/03/14 01:48:53;;;;;;;12.05;3.10;;;11.10;99.90;;;;;;5011292;28;20412;-65
2021/03/14 01:51:58;;;;;;;14.25;4.80;;;11.00;99.90;;;;;;5009690;28;20052;-66
2021/03/14 01:55:05;;;;;;;15.82;2.40;;;11.10;99.90;;;;;;5010585;28;20404;-67
2021/03/14 01:58:11;;;;;;;11.48;3.17;;;11.00;99.90;;;;;;5011042;28;20049;-66
2021/03/14 02:01:16;;;;;;;11.05;2.58;;;11.10;99.90;;;;;;5002771;28;20408;-67
2021/03/14 02:04:21;;;;;;;8.65;2.10;;;11.00;99.90;;;;;;5007881;28;20049;-67
2021/03/14 02:07:25;;;;;;;6.85;1.55;;;11.10;99.90;;;;;;5011152;28;20045;-67
2021/03/14 02:10:31;;;;;;;12.00;2.83;;;11.00;99.90;;;;;;5011063;28;20041;-67
2021/03/14 02:13:47;;;;;;;8.80;2.35;;;11.00;99.90;;;;;;5011198;28;20060;-66
2021/03/14 02:16:54;;;;;;;17.15;2.85;;;11.00;99.90;;;;;;5010686;28;20049;-67
2021/03/14 02:20:10;;;;;;;12.88;2.60;;;10.90;99.90;;;;;;5010824;28;20424;-67
2021/03/14 02:23:43;;;;;;;6.55;1.88;;;11.10;99.90;;;;;;5009617;28;20045;-67
2021/03/14 02:26:59;;;;;;;13.07;2.80;;;11.10;99.90;;;;;;5006756;28;20030;-67
2021/03/14 02:30:07;;;;;;;12.98;4.40;;;11.20;99.90;;;;;;5009169;28;20443;-67
2021/03/14 02:33:15;;;;;;;14.93;3.20;;;11.20;99.90;;;;;;5008350;28;20037;-66
2021/03/14 02:36:23;;;;;;;8.15;1.75;;;11.10;99.90;;;;;;4999759;28;20432;-67
2021/03/14 02:39:28;;;;;;;8.02;1.67;;;11.00;99.90;;;;;;5009664;28;20053;-66
2021/03/14 02:42:35;;;;;;;22.83;2.53;;;11.00;99.90;;;;;;4998320;28;20041;-66
2021/03/14 02:45:40;;;;;;;6.15;1.75;;;11.00;99.90;;;;;;5009949;28;20033;-66
2021/03/14 02:48:44;;;;;;;9.77;2.05;;;11.10;99.90;;;;;;5009823;28;20042;-66
2021/03/14 02:51:49;;;;;;;17.70;2.42;;;11.10;99.90;;;;;;5009727;28;20046;-67
2021/03/14 02:54:55;;;;;;;12.23;4.53;;;11.20;99.90;;;;;;5010131;28;20404;-67
2021/03/14 02:58:01;;;;;;;15.05;3.05;;;11.20;99.90;;;;;;5009776;28;20040;-67
2021/03/14 03:01:08;;;;;;;16.42;3.75;;;11.20;99.90;;;;;;5009890;28;20068;-67
2021/03/14 03:04:14;;;;;;;10.02;2.80;;;11.10;99.90;;;;;;5009732;28;20504;-66
2021/03/14 03:07:20;;;;;;;12.65;3.35;;;11.10;99.90;;;;;;5009234;28;20058;-67
2021/03/14 03:10:28;;;;;;;13.90;2.20;;;11.00;99.90;;;;;;5009800;28;20045;-67
2021/03/14 03:13:36;;;;;;;9.50;2.25;;;11.10;99.90;;;;;;5009326;28;20049;-65
2021/03/14 03:16:43;;;;;;;10.45;2.15;;;11.10;99.90;;;;;;5008517;28;20069;-67
2021/03/14 03:19:47;;;;;;;11.82;2.67;;;11.10;99.90;;;;;;5009385;28;20408;-66
2021/03/14 03:22:51;;;;;;;19.02;2.70;;;11.10;99.90;;;;;;5009214;28;20045;-67
2021/03/14 03:25:55;;;;;;;12.68;2.85;;;11.20;99.90;;;;;;5008949;28;20045;-67
2021/03/14 03:28:59;;;;;;;11.68;3.45;;;11.10;99.90;;;;;;5009411;28;20524;-67
2021/03/14 03:32:05;;;;;;;13.05;3.38;;;11.00;99.90;;;;;;5009236;28;20053;-65
2021/03/14 03:35:12;;;;;;;9.55;3.08;;;11.00;99.90;;;;;;5012138;28;20040;-67
2021/03/14 03:38:16;;;;;;;15.35;3.70;;;10.80;99.90;;;;;;5013433;28;20049;-67
2021/03/14 03:41:22;;;;;;;11.63;2.10;;;10.80;99.90;;;;;;5012194;28;20057;-66
2021/03/14 03:44:26;;;;;;;8.00;1.98;;;10.90;99.90;;;;;;5013284;28;20041;-66
2021/03/14 03:47:31;;;;;;;8.30;1.88;;;11.00;99.90;;;;;;5013290;28;20044;-67
2021/03/14 03:50:37;;;;;;;14.43;2.70;;;10.90;99.90;;;;;;5013300;28;20235;-67
2021/03/14 03:53:42;;;;;;;12.07;3.13;;;10.60;99.90;;;;;;5012921;28;20408;-67
2021/03/14 03:56:50;;;;;;;11.75;3.08;;;10.70;99.90;;;;;;5012927;28;20053;-66
2021/03/14 03:59:55;;;;;;;10.15;2.55;;;10.80;99.90;;;;;;5013286;28;20068;-67
2021/03/14 04:03:00;;;;;;;16.05;3.15;;;10.90;99.90;;;;;;5012817;28;20061;-67
2021/03/14 04:06:05;;;;;;;11.82;2.08;;;10.90;99.90;;;;;;5012767;28;20045;-66
2021/03/14 04:09:10;;;;;;;14.93;2.63;;;10.70;99.90;;;;;;5013072;28;20044;-66
2021/03/14 04:12:16;;;;;;;10.50;2.55;;;10.80;99.90;;;;;;5012612;28;20515;-67
2021/03/14 04:15:24;;;;;;;11.90;1.88;;;10.90;99.90;;;;;;5012868;28;20045;-66
2021/03/14 04:18:31;;;;;;;11.70;2.17;;;11.00;99.90;;;;;;5012667;28;20606;-65
2021/03/14 04:21:35;;;;;;;9.93;2.17;;;11.00;99.90;;;;;;5012832;28;20045;-67
2021/03/14 04:24:43;;;;;;;15.18;2.30;;;11.00;99.90;;;;;;5012965;28;20034;-67
2021/03/14 04:27:49;;;;;;;10.55;2.00;;;10.80;99.90;;;;;;5012144;28;20037;-66
2021/03/14 04:30:53;;;;;;;15.75;2.20;;;10.70;99.90;;;;;;5012829;28;20045;-67
2021/03/14 04:33:58;;;;;;;16.77;3.05;;;10.60;99.90;;;;;;5012604;28;20416;-64
2021/03/14 04:37:05;;;;;;;9.40;2.38;;;10.50;99.90;;;;;;5012867;28;20519;-66
2021/03/14 04:40:11;;;;;;;13.75;2.83;;;10.50;99.90;;;;;;5012991;28;20034;-65
2021/03/14 04:43:17;;;;;;;16.00;3.58;;;10.30;99.90;;;;;;5011951;28;20121;-67
2021/03/14 04:46:21;;;;;;;10.60;2.35;;;10.30;99.90;;;;;;5011585;28;20049;-65
2021/03/14 04:49:26;;;;;;;11.60;3.05;;;10.30;99.90;;;;;;5012431;28;20053;-66
2021/03/14 04:52:30;;;;;;;18.92;2.70;;;10.20;99.90;;;;;;5012341;28;20057;-67
2021/03/14 04:55:37;;;;;;;14.52;2.40;;;10.20;99.90;;;;;;5012054;28;20049;-65
2021/03/14 04:58:42;;;;;;;17.30;3.45;;;10.30;99.90;;;;;;5011575;28;20515;-67
2021/03/14 05:01:49;;;;;;;14.85;3.10;;;10.20;99.90;;;;;;5012120;28;20053;-66
2021/03/14 05:04:55;;;;;;;16.40;3.28;;;10.20;99.90;;;;;;5012098;28;20053;-66
2021/03/14 05:08:00;;;;;;;12.48;3.65;;;10.20;99.90;;;;;;5012236;28;20048;-66
2021/03/14 05:11:05;;;;;;;13.32;3.42;;;10.20;99.90;;;;;;5011925;28;20045;-67
2021/03/14 05:14:11;;;;;;;17.92;3.92;;;10.30;99.90;;;;;;5011275;28;20408;-67
2021/03/14 05:17:16;;;;;;;12.65;2.55;;;10.30;99.90;;;;;;5011326;28;20037;-67
2021/03/14 05:20:21;;;;;;;12.45;2.40;;;10.30;99.90;;;;;;5011733;28;20041;-66
2021/03/14 05:23:26;;;;;;;17.58;3.47;;;10.40;99.90;;;;;;5011503;28;20037;-65
2021/03/14 05:26:31;;;;;;;9.52;2.30;;;10.40;99.90;;;;;;5011413;28;20049;-67
2021/03/14 05:29:36;;;;;;;12.68;2.60;;;10.40;99.90;;;;;;5011379;28;20539;-66
2021/03/14 05:32:42;;;;;;;12.93;2.95;;;10.20;99.90;;;;;;5011136;28;20057;-67
2021/03/14 05:35:46;;;;;;;18.05;2.22;;;10.20;99.90;;;;;;5010916;28;20405;-67
2021/03/14 05:38:52;;;;;;;10.70;2.55;;;10.10;99.90;;;;;;5022052;28;20052;-67
2021/03/14 05:41:57;;;;;;;15.23;2.53;;;10.10;99.90;;;;;;5011129;28;20049;-66
2021/03/14 05:45:02;;;;;;;16.38;2.65;;;10.10;99.90;;;;;;5010958;28;20093;-67
2021/03/14 05:48:07;;;;;;;15.10;3.60;;;10.20;99.90;;;;;;5010944;28;20049;-67
2021/03/14 05:51:20;;;;;;;14.50;3.22;;;10.10;99.90;;;;;;5011117;28;20049;-67
2021/03/14 05:54:24;;;;;;;12.38;2.58;;;10.10;99.90;;;;;;5010982;28;20324;-67
2021/03/14 05:57:30;;;;;;;21.85;3.42;;;10.00;99.90;;;;;;5009967;28;20049;-67
2021/03/14 06:00:35;;;;;;;22.42;3.20;;;10.10;99.90;;;;;;5011255;28;20316;-67
2021/03/14 06:03:41;;;;;;;24.42;3.40;;;10.20;99.90;;;;;;5010281;28;20041;-66
2021/03/14 06:06:46;;;;;;;19.70;3.40;;;10.20;99.90;;;;;;5010779;28;20048;-66
2021/03/14 06:09:53;;;;;;;16.30;2.92;;;10.20;99.90;;;;;;5010686;28;20052;-66
2021/03/14 06:12:58;;;;;;;11.20;2.83;;;10.20;99.90;;;;;;5010582;28;20188;-67
2021/03/14 06:16:02;;;;;;;14.60;2.65;;;10.30;99.90;;;;;;5009872;28;20408;-65
2021/03/14 06:19:06;;;;;;;14.60;2.53;;;10.50;99.90;;;;;;5010492;28;20056;-66
2021/03/14 06:22:21;;;;;;;8.38;2.22;;;10.40;99.90;;;;;;5010346;28;20041;-66
2021/03/14 06:25:26;;;;;;;11.32;2.40;;;10.40;99.90;;;;;;5010052;28;20041;-67
2021/03/14 06:28:32;;;;;;;10.35;2.38;;;10.60;99.90;;;;;;5010456;28;20109;-67
2021/03/14 06:31:47;;;;;;;11.35;2.00;;;10.50;99.90;;;;;;5010601;28;20045;-67
2021/03/14 06:35:09;;;;;;;13.98;2.67;;;10.50;99.90;;;;;;5010120;28;20048;-66
2021/03/14 06:38:31;;;;;;;10.82;2.35;;;10.40;99.90;;;;;;5009747;28;20052;-67
2021/03/14 06:41:37;;;;;;;20.02;3.42;;;10.40;99.90;;;;;;5007778;28;20043;-66
2021/03/14 06:44:42;;;;;;;13.77;2.60;;;10.30;99.90;;;;;;5009727;28;20048;-66
2021/03/14 06:47:48;;;;;;;15.88;2.53;;;10.30;99.90;;;;;;5008678;28;20057;-67
2021/03/14 06:50:53;;;;;;;9.98;2.95;;;10.50;99.90;;;;;;5006874;28;20053;-67
2021/03/14 06:54:16;;;;;;;14.35;2.30;;;10.50;99.90;;;;;;5009509;28;20037;-66
2021/03/14 06:57:21;;;;;;;8.10;2.50;;;10.50;99.90;;;;;;5008173;28;20053;-67
2021/03/14 07:00:24;;;;;;;15.27;3.55;;;10.50;99.90;;;;;;5009916;28;20045;-66
2021/03/14 07:03:28;;;;;;;12.30;2.63;;;10.60;99.90;;;;;;4997771;28;20052;-66
2021/03/14 07:06:34;;;;;;;13.38;2.55;;;10.50;99.90;;;;;;4993056;28;20045;-66
2021/03/14 07:09:38;;;;;;;15.07;3.58;;;10.60;99.90;;;;;;4994020;28;20530;-66
2021/03/14 07:12:44;;;;;;;14.70;3.17;;;10.60;99.90;;;;;;4992559;28;20121;-65
2021/03/14 07:15:51;;;;;;;17.85;2.95;;;10.50;99.90;;;;;;4992032;28;20156;-67
2021/03/14 07:18:56;;;;;;;16.42;3.65;;;10.40;99.90;;;;;;4993874;28;20065;-67
2021/03/14 07:22:05;;;;;;;19.02;3.50;;;10.60;99.90;;;;;;4991996;28;20074;-66
2021/03/14 07:25:22;;;;;;;10.27;3.42;;;10.60;99.90;;;;;;4989039;28;20041;-67
2021/03/14 07:28:27;;;;;;;11.38;3.15;;;10.40;99.90;;;;;;5002223;28;20505;-67
2021/03/14 07:31:34;;;;;;;13.68;3.45;;;10.40;99.90;;;;;;5010610;28;20558;-66
2021/03/14 07:34:38;;;;;;;18.50;3.35;;;10.50;99.90;;;;;;5009380;28;20053;-66
2021/03/14 07:37:44;;;;;;;14.82;3.67;;;10.50;99.90;;;;;;5002432;28;20543;-67
2021/03/14 07:40:48;;;;;;;21.40;6.13;;;10.60;99.90;;;;;;5006435;28;20053;-67
2021/03/14 07:43:53;;;;;;;15.82;4.15;;;10.70;99.90;;;;;;5007419;28;20064;-69
2021/03/14 07:47:00;;;;;;;17.20;5.32;;;10.70;99.90;;;;;;5014630;28;20048;-67
2021/03/14 07:50:26;;;;;;;13.32;4.30;;;12.10;99.90;;;;;;5009682;28;20037;-67
2021/03/14 07:53:30;;;;;;;10.25;3.97;;;13.30;99.90;;;;;;5006011;28;20065;-66
2021/03/14 07:56:38;;;;;;;14.93;4.15;;;12.20;99.90;;;;;;5006142;28;20060;-67
2021/03/14 07:59:42;;;;;;;13.20;4.20;;;11.90;99.90;;;;;;5012888;28;20045;-66
2021/03/14 08:02:54;;;;;;;18.27;3.88;;;11.70;99.90;;;;;;5015406;28;20048;-67
2021/03/14 08:05:58;;;;;;;;;;;12.60;99.90;;;;;;5005671;28;20049;-66
2021/03/14 08:09:02;;;;;;;12.45;3.15;;;12.50;99.90;;;;;;5010869;28;19936;-66
2021/03/14 08:12:35;;;;;;;8.93;2.72;;;12.00;99.90;;;;;;5011260;28;20044;-67
2021/03/14 08:15:40;;;;;;;18.52;4.93;;;11.80;99.90;;;;;;4993405;28;20042;-66
2021/03/14 08:18:52;;;;;;;16.60;4.25;;;11.00;99.90;;;;;;5004330;28;20052;-67
2021/03/14 08:21:57;;;;;;;20.92;3.60;;;10.80;99.90;;;;;;5001818;28;20048;-66
2021/03/14 08:25:25;;;;;;;14.82;4.35;;;10.70;99.90;;;;;;5006153;28;20379;-67
2021/03/14 08:28:34;;;;;;;17.73;3.47;;;10.80;99.90;;;;;;5011050;28;20546;-67
2021/03/14 08:31:53;;;;;;;17.73;4.22;;;11.00;99.90;;;;;;5014403;28;20048;-66
2021/03/14 08:35:02;;;;;;;15.82;3.42;;;11.10;99.90;;;;;;5006808;28;20133;-66
2021/03/14 08:38:36;;;;;;;16.63;3.90;;;11.10;99.90;;;;;;5004955;28;20057;-67
2021/03/14 08:41:54;;;;;;;18.17;3.15;;;11.10;99.90;;;;;;5008114;28;20412;-66
2021/03/14 08:45:23;;;;;;;16.10;3.88;;;11.10;99.90;;;;;;5011057;28;20562;-67
2021/03/14 08:48:57;;;;;;;15.38;3.47;;;11.00;99.90;;;;;;5008451;28;20475;-66
2021/03/14 08:52:04;;;;;;;15.52;4.13;;;10.70;99.90;;;;;;5011765;28;20527;-66
2021/03/14 08:55:09;;;;;;;21.67;3.35;;;10.10;99.90;;;;;;5010255;28;20061;-67
2021/03/14 08:58:16;;;;;;;17.52;3.42;;;9.80;99.90;;;;;;5011628;28;20049;-67
2021/03/14 09:01:28;;;;;;;17.20;4.00;;;9.50;99.90;;;;;;4999247;28;20052;-66
2021/03/14 09:04:41;;;;;;;16.70;3.88;;;9.30;99.90;;;;;;5010883;28;20044;-65
2021/03/14 09:08:00;;;;;;;14.77;3.50;;;8.90;99.90;;;;;;5005919;28;20445;-65
2021/03/14 09:11:10;;;;;;;16.40;2.60;;;8.50;99.90;;;;;;5007180;28;20057;-67
2021/03/14 09:14:32;;;;;;;9.38;2.20;;;8.40;99.90;;;;;;5019161;28;20044;-66
2021/03/14 09:17:41;;;;;;;13.05;2.70;;;8.50;99.90;;;;;;5007505;28;20046;-67
2021/03/14 09:20:45;;;;;;;14.68;2.67;;;8.70;99.90;;;;;;5009838;28;20640;-66
2021/03/14 09:23:49;;;;;;;14.00;2.50;;;8.90;99.90;;;;;;5000837;28;20045;-68
2021/03/14 09:27:25;;;;;;;8.30;2.28;;;9.10;99.90;;;;;;5017137;28;20519;-66
2021/03/14 09:30:31;;;;;;;13.38;3.25;;;9.30;99.90;;;;;;5006570;28;20038;-67
2021/03/14 09:33:40;;;;;;;15.30;3.78;;;9.40;99.90;;;;;;5017465;28;20049;-66
2021/03/14 09:36:58;;;;;;;16.92;4.13;;;9.60;99.90;;;;;;5019945;28;20527;-67
2021/03/14 09:40:26;;;;;;;15.55;3.15;;;9.90;99.90;;;;;;5018368;28;20041;-66
2021/03/14 09:43:30;;;;;;;25.35;4.60;;;10.20;99.90;;;;;;5007916;28;20042;-67
2021/03/14 09:47:00;;;;;;;22.05;3.17;;;10.70;99.90;;;;;;5000830;28;20045;-67
2021/03/14 09:50:28;;;;;;;18.52;3.47;;;11.20;99.90;;;;;;5010162;28;20040;-67
2021/03/14 09:53:37;;;;;;;17.85;4.28;;;11.10;99.90;;;;;;5025258;28;20045;-66
2021/03/14 09:56:50;;;;;;;17.65;3.60;;;11.10;99.90;;;;;;5006737;28;20048;-67
2021/03/14 09:59:58;;;;;;;19.98;3.28;;;11.00;99.90;;;;;;5009722;28;20065;-67
2021/03/14 10:03:31;;;;;;;16.55;3.10;;;11.00;99.90;;;;;;5005167;28;20049;-66
2021/03/14 10:06:44;;;;;;;20.40;4.00;;;11.00;99.90;;;;;;5008543;28;20033;-66
2021/03/14 10:09:50;;;;;;;62.20;25.75;;;10.90;99.90;;;;;;5008184;28;20053;-67
2021/03/14 10:13:07;;;;;;;21.95;3.72;;;11.00;99.90;;;;;;5020466;28;20025;-66
2021/03/14 10:16:15;;;;;;;21.95;4.63;;;10.50;99.90;;;;;;5009958;28;20570;-67
2021/03/14 10:19:22;;;;;;;34.72;5.65;;;10.40;99.90;;;;;;5003101;28;20052;-67
2021/03/14 10:22:34;;;;;;;23.48;4.18;;;10.40;99.90;;;;;;5014843;28;20511;-67
2021/03/14 10:26:09;;;;;;;19.90;4.47;;;10.60;99.90;;;;;;5007845;28;20401;-67
2021/03/14 10:29:33;;;;;;;19.50;3.40;;;10.70;99.90;;;;;;5001696;28;20531;-66
2021/03/14 10:33:00;;;;;;;23.02;3.80;;;10.80;99.90;;;;;;5012997;28;20515;-67
2021/03/14 10:36:15;;;;;;;25.17;5.15;;;11.10;99.90;;;;;;5005792;28;20041;-67
2021/03/14 10:39:30;;;;;;;23.00;5.07;;;11.70;99.90;;;;;;5002592;28;20405;-67
2021/03/14 10:42:49;;;;;;;37.85;17.08;;;12.10;99.90;;;;;;5007981;28;20710;-67
2021/03/14 10:46:05;;;;;;;29.73;6.97;;;12.50;99.90;;;;;;5001233;28;20041;-67
2021/03/14 10:49:15;;;;;;;31.13;11.20;;;12.50;99.90;;;;;;5005946;28;20396;-64
2021/03/14 10:52:20;;;;;;;32.40;7.70;;;12.10;99.90;;;;;;5013159;28;20041;-67
2021/03/14 10:55:35;;;;;;;27.15;8.60;;;11.70;99.90;;;;;;5017486;28;20044;-66
2021/03/14 10:58:42;;;;;;;34.13;4.60;;;11.30;99.90;;;;;;5005109;28;20049;-67
2021/03/14 11:02:18;;;;;;;43.45;9.07;;;11.00;99.90;;;;;;5003460;28;20048;-67
2021/03/14 11:05:24;;;;;;;31.20;5.78;;;10.80;99.90;;;;;;5018734;28;20056;-68
2021/03/14 11:08:47;;;;;;;19.70;4.70;;;10.60;99.90;;;;;;5006810;28;20193;-67
2021/03/14 11:11:53;;;;;;;26.08;4.43;;;10.00;99.90;;;;;;5003824;28;20110;-68
2021/03/14 11:15:00;;;;;;;32.13;7.25;;;9.90;99.90;;;;;;5018181;28;20428;-67
2021/03/14 11:18:22;;;;;;;33.97;5.82;;;9.80;99.90;;;;;;5011355;28;20523;-67
2021/03/14 11:21:58;;;;;;;34.20;5.18;;;9.90;99.90;;;;;;4998264;28;20052;-67
2021/03/14 11:25:13;;;;;;;29.85;4.55;;;9.80;99.90;;;;;;5008097;28;20033;-67
2021/03/14 11:28:18;;;;;;;44.13;7.32;;;9.40;99.90;;;;;;4994228;28;20041;-67
2021/03/14 11:31:23;;;;;;;36.72;8.48;;;9.00;99.90;;;;;;5001684;28;20053;-68
2021/03/14 11:34:28;;;;;;;34.67;5.07;;;8.60;99.90;;;;;;5013072;28;20045;-67
2021/03/14 11:37:51;;;;;;;60.20;24.27;;;8.60;99.90;;;;;;5009416;28;20048;-67
2021/03/14 11:41:20;;;;;;;31.75;6.28;;;8.60;99.90;;;;;;4982815;28;20041;-67
2021/03/14 11:44:47;;;;;;;38.97;6.10;;;8.50;99.90;;;;;;5003378;28;20048;-66
2021/03/14 11:47:52;;;;;;;25.17;4.53;;;8.70;99.90;;;;;;4996251;28;20641;-67
2021/03/14 11:51:17;;;;;;;12.05;3.03;;;8.60;99.90;;;;;;4985343;28;20049;-66
2021/03/14 11:54:23;;;;;;;8.90;1.75;;;7.80;99.90;;;;;;4991673;28;20033;-65
2021/03/14 11:57:40;;;;;;;4.18;1.23;;;7.30;99.90;;;;;;5002181;28;20397;-67
2021/03/14 12:00:45;;;;;;;5.35;1.30;;;6.90;99.90;;;;;;5006273;28;20446;-66
2021/03/14 12:03:49;;;;;;;2.72;1.10;;;6.60;99.90;;;;;;4996142;28;20042;-65
2021/03/14 12:06:59;;;;;;;4.03;1.40;;;6.50;99.90;;;;;;4998375;28;20037;-67
2021/03/14 12:10:13;;;;;;;2.42;1.02;;;6.40;99.90;;;;;;5008966;28;20523;-66
2021/03/14 12:13:18;;;;;;;2.55;1.40;;;6.20;99.90;;;;;;5009465;28;20046;-67
2021/03/14 12:16:23;;;;;;;2.22;1.23;;;6.10;99.90;;;;;;5008812;28;20037;-67
2021/03/14 12:19:27;;;;;;;1.80;1.05;;;6.00;99.90;;;;;;5006048;28;20038;-67
2021/03/14 12:22:31;;;;;;;3.15;1.50;;;6.00;99.90;;;;;;5017182;28;20492;-67
2021/03/14 12:25:36;;;;;;;2.85;1.60;;;6.40;99.90;;;;;;5003960;28;20068;-67
2021/03/14 12:28:43;;;;;;;1.95;1.25;;;7.20;99.90;;;;;;5005337;28;20049;-67
2021/03/14 12:31:48;;;;;;;2.28;1.00;;;8.80;99.90;;;;;;5006132;28;20267;-67
2021/03/14 12:34:52;;;;;;;3.15;1.00;;;9.50;99.90;;;;;;5008634;28;20531;-67
2021/03/14 12:38:02;;;;;;;1.42;0.95;;;9.10;99.90;;;;;;5021436;28;20063;-67
2021/03/14 12:40:41;;;;;;;3.25;1.70;;;8.80;99.90;;;;;;5049926;28;20373;-68
2021/03/14 12:43:46;;;;;;;2.88;1.40;;;8.80;99.90;;;;;;5055551;28;20045;-67
2021/03/14 12:46:53;;;;;;;1.70;1.00;;;8.40;99.90;;;;;;5053498;28;20041;-66
2021/03/14 12:50:00;;;;;;;2.38;1.30;;;8.10;99.90;;;;;;5054927;28;20399;-66
2021/03/14 12:53:09;;;;;;;1.40;0.90;;;7.70;99.90;;;;;;5054203;28;20040;-68
2021/03/14 12:56:14;;;;;;;2.10;1.27;;;7.30;99.90;;;;;;5054499;28;20033;-67
2021/03/14 12:59:28;;;;;;;2.00;1.08;;;6.90;99.90;;;;;;5049744;28;20033;-67
2021/03/14 13:02:33;;;;;;;1.75;1.10;;;6.90;99.90;;;;;;5062253;28;20028;-67
2021/03/14 13:05:37;;;;;;;3.05;1.75;;;6.90;99.90;;;;;;5048012;28;20022;-67
2021/03/14 13:08:41;;;;;;;4.90;2.45;;;6.90;99.90;;;;;;5047865;28;20029;-66
2021/03/14 13:11:46;;;;;;;7.28;3.30;;;6.70;99.90;;;;;;5046429;28;20041;-68
2021/03/14 13:14:50;;;;;;;7.05;5.15;;;6.60;99.90;;;;;;5043885;28;20507;-68
2021/03/14 13:17:54;;;;;;;4.32;2.58;;;6.90;99.90;;;;;;5043413;28;20044;-67
2021/03/14 13:20:58;;;;;;;3.17;1.33;;;7.40;99.90;;;;;;5043448;28;20033;-65
2021/03/14 13:24:03;;;;;;;5.50;2.40;;;7.50;99.90;;;;;;5062203;28;20032;-68
2021/03/14 13:27:07;;;;;;;1.83;1.00;;;7.30;99.90;;;;;;5053629;28;20037;-67
2021/03/14 13:30:13;;;;;;;2.53;1.10;;;7.00;99.90;;;;;;5051853;28;20380;-66
2021/03/14 13:33:18;;;;;;;6.07;1.38;;;6.80;99.90;;;;;;5057284;28;20041;-67
2021/03/14 13:36:22;;;;;;;3.47;1.30;;;6.70;99.90;;;;;;5045041;28;20049;-67
2021/03/14 13:39:26;;;;;;;21.42;10.88;;;6.80;99.90;;;;;;5063182;28;20211;-67
2021/03/14 13:42:31;;;;;;;9.90;5.75;;;6.90;99.90;;;;;;5058246;28;20533;-66
2021/03/14 13:45:35;;;;;;;2.72;1.60;;;7.00;99.90;;;;;;5054650;28;20033;-68
2021/03/14 13:48:41;;;;;;;2.72;1.60;;;7.10;99.90;;;;;;5058334;28;20044;-68
2021/03/14 13:51:45;;;;;;;6.70;2.40;;;7.30;99.90;;;;;;5033162;28;20033;-68
2021/03/14 13:54:50;;;;;;;2.97;1.52;;;7.60;99.90;;;;;;5040624;28;20044;-68
2021/03/14 13:57:55;;;;;;;4.68;1.00;;;7.70;99.90;;;;;;5038014;28;20037;-67
2021/03/14 14:01:01;;;;;;;1.10;0.75;;;7.80;99.90;;;;;;5032611;28;20373;-67
2021/03/14 14:04:06;;;;;;;1.27;0.88;;;7.80;99.90;;;;;;5043872;28;20041;-67
2021/03/14 14:07:11;;;;;;;5.55;1.58;;;7.50;99.90;;;;;;5039054;28;20033;-67
2021/03/14 14:10:18;;;;;;;2.53;1.52;;;6.90;99.90;;;;;;5046429;28;20049;-66
2021/03/14 14:13:24;;;;;;;1.88;1.42;;;6.60;99.90;;;;;;5046374;28;20041;-65
2021/03/14 14:16:31;;;;;;;2.67;1.60;;;6.20;99.90;;;;;;5045851;28;20045;-68
2021/03/14 14:19:35;;;;;;;3.38;1.60;;;6.00;99.90;;;;;;5037611;28;20037;-67
2021/03/14 14:22:40;;;;;;;5.18;2.83;;;6.20;99.90;;;;;;5040408;28;20041;-67
2021/03/14 14:25:44;;;;;;;4.22;2.78;;;6.40;99.90;;;;;;5048472;28;20040;-67
2021/03/14 14:28:49;;;;;;;4.38;2.70;;;6.70;99.90;;;;;;5038001;28;20045;-68
2021/03/14 14:31:53;;;;;;;7.90;3.10;;;6.80;99.90;;;;;;5037130;28;20037;-66
2021/03/14 14:34:58;;;;;;;11.00;5.57;;;6.60;99.90;;;;;;5047881;28;20040;-67
2021/03/14 14:38:04;;;;;;;8.63;5.10;;;6.40;99.90;;;;;;5046347;28;20495;-67
2021/03/14 14:41:08;;;;;;;4.40;2.72;;;6.40;99.90;;;;;;5044397;28;20033;-67
2021/03/14 14:44:13;;;;;;;5.45;2.45;;;6.00;99.90;;;;;;5043130;28;20032;-67
2021/03/14 14:47:17;;;;;;;5.10;2.58;;;5.90;99.90;;;;;;5044140;28;20033;-67
2021/03/14 14:50:22;;;;;;;5.97;2.92;;;6.10;99.90;;;;;;5048579;28;20037;-67
2021/03/14 14:53:27;;;;;;;5.38;2.13;;;6.00;99.90;;;;;;5046424;28;20053;-67
2021/03/14 14:56:32;;;;;;;3.47;2.38;;;5.80;99.90;;;;;;5042200;28;20033;-67
2021/03/14 14:59:37;;;;;;;6.82;2.80;;;5.80;99.90;;;;;;5045928;28;20396;-67
2021/03/14 15:02:43;;;;;;;3.40;2.60;;;5.60;99.90;;;;;;5046964;28;20033;-66
2021/03/14 15:05:48;;;;;;;4.82;3.00;;;5.60;99.90;;;;;;5033881;28;20033;-67
2021/03/14 15:08:52;;;;;;;5.28;3.30;;;5.70;99.90;;;;;;5034685;28;20480;-66
2021/03/14 15:11:57;;;;;;;7.30;3.67;;;6.00;99.90;;;;;;5044095;28;20037;-67
2021/03/14 15:15:04;;;;;;;6.97;3.88;;;6.10;99.90;;;;;;5033884;28;20385;-67
2021/03/14 15:18:09;;;;;;;7.20;2.95;;;6.00;99.90;;;;;;5033656;28;20041;-67
2021/03/14 15:21:14;;;;;;;5.53;3.03;;;5.70;99.90;;;;;;5039125;28;20033;-67
2021/03/14 15:24:20;;;;;;;3.90;2.35;;;5.80;99.90;;;;;;5030078;28;20049;-67
2021/03/14 15:27:27;;;;;;;3.72;2.28;;;5.80;99.90;;;;;;5047330;28;20033;-67
2021/03/14 15:30:33;;;;;;;5.47;2.53;;;5.80;99.90;;;;;;5035373;28;20057;-66
2021/03/14 15:33:43;;;;;;;3.60;2.15;;;5.70;99.90;;;;;;5031452;28;20041;-67
2021/03/14 15:36:48;;;;;;;4.30;2.97;;;5.80;99.90;;;;;;5032053;28;20067;-67
2021/03/14 15:39:53;;;;;;;6.93;2.15;;;6.10;99.90;;;;;;5032027;28;20412;-67
2021/03/14 15:42:59;;;;;;;4.80;2.00;;;6.30;99.90;;;;;;5035574;28;20033;-67
2021/03/14 15:46:05;;;;;;;8.32;4.18;;;6.40;99.90;;;;;;5039745;28;20482;-67
2021/03/14 15:49:09;;;;;;;3.40;2.05;;;6.40;99.90;;;;;;5044313;28;20041;-67
2021/03/14 15:52:14;;;;;;;4.93;2.65;;;6.40;99.90;;;;;;5029367;28;20037;-67
2021/03/14 15:55:18;;;;;;;8.88;6.03;;;6.40;99.90;;;;;;5030048;28;20063;-67
2021/03/14 15:58:22;;;;;;;6.80;4.00;;;6.30;99.90;;;;;;5039581;28;20045;-67
2021/03/14 16:01:27;;;;;;;11.88;5.80;;;6.20;99.90;;;;;;5037175;28;20033;-67
2021/03/14 16:04:30;;;;;;;4.30;2.72;;;6.30;99.90;;;;;;5042460;28;20414;-67
2021/03/14 16:07:37;;;;;;;5.20;3.53;;;6.40;99.90;;;;;;5039959;28;20037;-67
2021/03/14 16:10:42;;;;;;;7.20;4.90;;;6.30;99.90;;;;;;5045538;28;20207;-67
2021/03/14 16:13:47;;;;;;;6.05;3.10;;;6.30;99.90;;;;;;5042397;28;20499;-67
2021/03/14 16:16:51;;;;;;;8.32;3.30;;;6.30;99.90;;;;;;5030354;28;20034;-67